Flight Number: EUR2051 Duration: 10:00
Departure: Munich Int'l (EDDM) at 07:15 Distance: 4351 Nm
Arrival: Miami Int'l (KMIA) at 17:15 Equipment: B747

Weather Information
Munchen, Germany (EDDM) 48-21N 011-47E Feb 19, 2018 - 02:20 AM EST / 2018.02.19 0720 UTC
Wind: Variable at 1 MPH (1 KT):0
Visibility: greater than 7 mile(s):0
Sky conditions: mostly cloudy Temperature: 24 F (-4 C) Dew Point: 23 F (-5 C) Relative Humidity: 92% Pressure (altimeter): 30.09 in. Hg (1019 hPa)
ob: EDDM 190720Z VRB01KT 9999 BKN010 M04/M05 Q1019 R88/190095 TEMPO BKN008 cycle: 7
Sunrise: 06:15 Sunset: 16:37 (UTC)

MIAMI INTERNATIONAL AIRPORT , FL, United States (KMIA) 25-47N 080-19W 8M Feb 19, 2018 - 01:53 AM EST / 2018.02.19 0653 UTC
Wind: from the E (090 degrees) at 15 MPH (13 KT):0
Visibility: 10 mile(s):0
Sky conditions: partly cloudy Temperature: 75.0 F (23.9 C) Dew Point: 64.9 F (18.3 C) Relative Humidity: 70% Pressure (altimeter): 30.21 in. Hg (1023 hPa)
ob: KMIA 190653Z 09013KT 10SM FEW028 SCT036 24/18 A3021 RMK AO2 SLP230 T02390183 cycle: 7
Sunrise: 11:55 Sunset: 23:14 (UTC)

TAF:2018/02/19 06:30 TAF KMIA 190528Z 1906/2012 08008KT P6SM FEW030 FM191500 10016G26KT P6SM SCT035 BKN060 FM200000 09013KT P6SM SCT050

Previous Pireps for this route
Date Aircraft Flight time Fuel used Landing rate On time
2012-09-21B74711.452000000No
2012-12-01B74711.51244840-198No
2013-03-23B7479.481262700Yes
2013-05-02B74710.00214957-499Yes
2013-08-03B74704.21225361-691No
2013-09-17B74710.181938000No
2013-10-14B74709.14241345-446Yes
2013-10-20B74710.151900000No
2013-10-25B74711.392238970No
2013-11-09B74712.142359660Yes
2013-11-16B74712.112359660No
2014-02-27B74711.03228882-231No
2014-10-07B74710.03207917-273No
2016-02-05A34009.43170731-369Charter
2016-02-26B74709.20195538-224Yes
(pireps marked green are flown by you)

Route map